Time,TemperatureF,DewpointF,PressureIn,WindDirection,WindDirectionDegrees,WindSpeedMPH,WindSpeedGustMPH,Humidity,HourlyPrecipIn,Conditions,Clouds,dailyrainin,SolarRadiationWatts/m^2,SoftwareType,DateUTC
2013-02-02 00:12:00,11.0,5.0,-100.00,West,272,1.0,7.0,75,0.00,,,0.00,0.000000,,2013-02-02 05:12:00,
2013-02-02 00:22:00,11.0,5.0,-100.00,West,272,1.0,7.0,75,0.00,,,0.00,0.000000,,2013-02-02 05:22:00,
2013-02-02 00:33:00,11.0,5.0,-100.00,West,272,1.0,7.0,75,0.00,,,0.00,0.000000,,2013-02-02 05:33:00,
2013-02-02 00:42:00,11.0,5.0,-100.00,West,272,1.0,7.0,75,0.00,,,0.00,0.000000,,2013-02-02 05:42:00,
2013-02-02 01:12:00,11.0,6.0,-100.00,South,169,3.0,6.0,79,0.00,,,0.00,0.000000,,2013-02-02 06:12:00,
2013-02-02 01:22:00,11.0,6.0,-100.00,South,169,3.0,6.0,79,0.00,,,0.00,0.000000,,2013-02-02 06:22:00,
2013-02-02 01:32:00,11.0,6.0,-100.00,South,169,3.0,6.0,79,0.00,,,0.00,0.000000,,2013-02-02 06:32:00,
2013-02-02 01:42:00,11.0,6.0,-100.00,South,169,3.0,6.0,79,0.00,,,0.00,0.000000,,2013-02-02 06:42:00,
2013-02-02 02:12:00,14.0,6.0,-100.00,SSW,198,2.0,-999.0,71,0.00,,,0.00,0.000000,,2013-02-02 07:12:00,
2013-02-02 02:21:00,14.0,6.0,-100.00,SSW,198,2.0,-999.0,71,0.00,,,0.00,0.000000,,2013-02-02 07:21:00,
2013-02-02 02:32:00,14.0,6.0,-100.00,SSW,198,2.0,-999.0,71,0.00,,,0.00,0.000000,,2013-02-02 07:32:00,
2013-02-02 02:42:00,14.0,6.0,-100.00,SSW,198,2.0,-999.0,71,0.00,,,0.00,0.000000,,2013-02-02 07:42:00,
2013-02-02 03:11:00,15.0,8.0,-100.00,South,171,5.0,-999.0,72,0.00,,,0.00,0.000000,,2013-02-02 08:11:00,
2013-02-02 03:21:00,15.0,8.0,-100.00,South,171,5.0,-999.0,72,0.00,,,0.00,0.000000,,2013-02-02 08:21:00,
2013-02-02 03:32:00,15.0,8.0,-100.00,South,171,5.0,-999.0,72,0.00,,,0.00,0.000000,,2013-02-02 08:32:00,
2013-02-02 03:42:00,15.0,8.0,-100.00,South,171,5.0,-999.0,72,0.00,,,0.00,0.000000,,2013-02-02 08:42:00,
2013-02-02 04:11:00,16.0,9.0,-100.00,South,184,4.0,6.0,74,0.00,,,0.00,0.000000,,2013-02-02 09:11:00,
2013-02-02 04:22:00,16.0,9.0,-100.00,South,184,4.0,6.0,74,0.00,,,0.00,0.000000,,2013-02-02 09:22:00,
2013-02-02 04:32:00,16.0,9.0,-100.00,South,184,4.0,6.0,74,0.00,,,0.00,0.000000,,2013-02-02 09:32:00,
2013-02-02 04:42:00,16.0,9.0,-100.00,South,184,4.0,6.0,74,0.00,,,0.00,0.000000,,2013-02-02 09:42:00,
2013-02-02 05:11:00,17.0,12.0,-100.00,SSW,207,4.0,6.0,80,0.00,,,0.00,0.000000,,2013-02-02 10:11:00,
2013-02-02 05:21:00,17.0,12.0,-100.00,SSW,207,4.0,6.0,80,0.00,,,0.00,0.000000,,2013-02-02 10:21:00,
2013-02-02 05:32:00,17.0,12.0,-100.00,SSW,207,4.0,6.0,80,0.00,,,0.00,0.000000,,2013-02-02 10:32:00,
2013-02-02 05:42:00,17.0,12.0,-100.00,SSW,207,4.0,6.0,80,0.00,,,0.00,0.000000,,2013-02-02 10:42:00,
2013-02-02 06:11:00,18.0,15.0,-100.00,SSW,199,4.0,8.0,86,0.00,,,0.00,0.000000,,2013-02-02 11:11:00,
2013-02-02 06:22:00,18.0,15.0,-100.00,SSW,199,4.0,8.0,86,0.00,,,0.00,0.000000,,2013-02-02 11:22:00,
2013-02-02 06:32:00,18.0,15.0,-100.00,SSW,199,4.0,8.0,86,0.00,,,0.00,0.000000,,2013-02-02 11:32:00,
2013-02-02 06:42:00,18.0,15.0,-100.00,SSW,199,4.0,8.0,86,0.00,,,0.00,0.000000,,2013-02-02 11:42:00,
2013-02-02 07:11:00,19.0,16.0,-100.00,South,171,4.0,6.0,88,0.00,,,0.00,0.000000,,2013-02-02 12:11:00,
2013-02-02 07:22:00,19.0,16.0,-100.00,South,171,4.0,6.0,88,0.00,,,0.00,0.000000,,2013-02-02 12:22:00,
2013-02-02 07:32:00,19.0,16.0,-100.00,South,171,4.0,6.0,88,0.00,,,0.00,0.000000,,2013-02-02 12:32:00,
2013-02-02 07:42:00,19.0,16.0,-100.00,South,171,4.0,6.0,88,0.00,,,0.00,0.000000,,2013-02-02 12:42:00,
2013-02-02 08:11:00,19.0,16.0,-100.00,SSW,203,5.0,9.0,89,0.00,,,0.00,0.000000,,2013-02-02 13:11:00,
2013-02-02 08:22:00,19.0,16.0,-100.00,SSW,203,5.0,9.0,89,0.00,,,0.00,0.000000,,2013-02-02 13:22:00,
2013-02-02 08:33:00,19.0,16.0,-100.00,SSW,203,5.0,9.0,89,0.00,,,0.00,0.000000,,2013-02-02 13:33:00,
2013-02-02 08:42:00,19.0,16.0,-100.00,SSW,203,5.0,9.0,89,0.00,,,0.00,0.000000,,2013-02-02 13:42:00,
2013-02-02 09:12:00,20.0,17.0,-100.00,South,181,6.0,9.0,88,0.00,,,0.00,15.000000,,2013-02-02 14:12:00,
2013-02-02 09:22:00,20.0,17.0,-100.00,South,181,6.0,9.0,88,0.00,,,0.00,15.000000,,2013-02-02 14:22:00,
2013-02-02 09:33:00,20.0,17.0,-100.00,South,181,6.0,9.0,88,0.00,,,0.00,15.000000,,2013-02-02 14:33:00,
2013-02-02 09:42:00,20.0,17.0,-100.00,South,181,6.0,9.0,88,0.00,,,0.00,15.000000,,2013-02-02 14:42:00,
2013-02-02 10:13:00,22.0,19.0,-100.00,SSW,193,6.0,12.0,87,0.00,,,0.00,57.000000,,2013-02-02 15:13:00,
2013-02-02 10:22:00,22.0,19.0,-100.00,SSW,193,6.0,12.0,87,0.00,,,0.00,57.000000,,2013-02-02 15:22:00,
2013-02-02 10:33:00,22.0,19.0,-100.00,SSW,193,6.0,12.0,87,0.00,,,0.00,57.000000,,2013-02-02 15:33:00,
2013-02-02 10:42:00,22.0,19.0,-100.00,SSW,193,6.0,12.0,87,0.00,,,0.00,57.000000,,2013-02-02 15:42:00,
2013-02-02 11:12:00,27.0,21.0,-100.00,SW,218,8.0,13.0,79,0.00,,,0.00,150.000000,,2013-02-02 16:12:00,
2013-02-02 11:23:00,27.0,21.0,-100.00,SW,218,8.0,13.0,79,0.00,,,0.00,150.000000,,2013-02-02 16:23:00,
2013-02-02 11:32:00,27.0,21.0,-100.00,SW,218,8.0,13.0,79,0.00,,,0.00,150.000000,,2013-02-02 16:32:00,
2013-02-02 11:42:00,27.0,21.0,-100.00,SW,218,8.0,13.0,79,0.00,,,0.00,150.000000,,2013-02-02 16:42:00,
2013-02-02 12:11:00,29.0,22.0,-100.00,SW,219,8.0,15.0,75,0.00,,,0.00,206.000000,,2013-02-02 17:11:00,
2013-02-02 12:23:00,29.0,22.0,-100.00,SW,219,8.0,15.0,75,0.00,,,0.00,206.000000,,2013-02-02 17:23:00,
2013-02-02 12:33:00,29.0,22.0,-100.00,SW,219,8.0,15.0,75,0.00,,,0.00,206.000000,,2013-02-02 17:33:00,
2013-02-02 12:42:00,29.0,22.0,-100.00,SW,219,8.0,15.0,75,0.00,,,0.00,206.000000,,2013-02-02 17:42:00,
2013-02-02 13:12:00,32.0,21.0,-100.00,SW,228,9.0,18.0,63,0.02,,,0.02,436.000000,,2013-02-02 18:12:00,
2013-02-02 13:22:00,32.0,21.0,-100.00,SW,228,9.0,18.0,63,0.02,,,0.02,436.000000,,2013-02-02 18:22:00,
2013-02-02 13:32:00,32.0,21.0,-100.00,SW,228,9.0,18.0,63,0.02,,,0.02,436.000000,,2013-02-02 18:32:00,
2013-02-02 13:42:00,32.0,21.0,-100.00,SW,228,9.0,18.0,63,0.02,,,0.02,436.000000,,2013-02-02 18:42:00,
2013-02-02 14:12:00,30.0,22.0,-100.00,WSW,244,11.0,17.0,71,0.06,,,0.08,317.000000,,2013-02-02 19:12:00,
2013-02-02 14:22:00,30.0,22.0,-100.00,WSW,244,11.0,17.0,71,0.06,,,0.08,317.000000,,2013-02-02 19:22:00,
2013-02-02 14:32:00,30.0,22.0,-100.00,WSW,244,11.0,17.0,71,0.06,,,0.08,317.000000,,2013-02-02 19:32:00,
2013-02-02 14:42:00,30.0,22.0,-100.00,WSW,244,11.0,17.0,71,0.06,,,0.08,317.000000,,2013-02-02 19:42:00,
2013-02-02 15:12:00,30.0,25.0,-100.00,SW,232,7.0,17.0,83,0.01,,,0.09,234.000000,,2013-02-02 20:12:00,
2013-02-02 15:22:00,30.0,25.0,-100.00,SW,232,7.0,17.0,83,0.01,,,0.09,234.000000,,2013-02-02 20:22:00,
2013-02-02 15:32:00,30.0,25.0,-100.00,SW,232,7.0,17.0,83,0.01,,,0.09,234.000000,,2013-02-02 20:32:00,
2013-02-02 15:42:00,30.0,25.0,-100.00,SW,232,7.0,17.0,83,0.01,,,0.09,234.000000,,2013-02-02 20:42:00,
2013-02-02 16:11:00,29.0,25.0,-100.00,SW,230,8.0,13.0,85,0.00,,,0.09,134.000000,,2013-02-02 21:11:00,
2013-02-02 16:22:00,29.0,25.0,-100.00,SW,230,8.0,13.0,85,0.00,,,0.09,134.000000,,2013-02-02 21:22:00,
2013-02-02 16:32:00,29.0,25.0,-100.00,SW,230,8.0,13.0,85,0.00,,,0.09,134.000000,,2013-02-02 21:32:00,
2013-02-02 16:42:00,29.0,25.0,-100.00,SW,230,8.0,13.0,85,0.00,,,0.09,134.000000,,2013-02-02 21:42:00,
2013-02-02 17:12:00,29.0,25.0,-100.00,WSW,247,9.0,15.0,83,0.00,,,0.09,56.000000,,2013-02-02 22:12:00,
2013-02-02 17:21:00,29.0,25.0,-100.00,WSW,247,9.0,15.0,83,0.00,,,0.09,56.000000,,2013-02-02 22:21:00,
2013-02-02 17:32:00,29.0,25.0,-100.00,WSW,247,9.0,15.0,83,0.00,,,0.09,56.000000,,2013-02-02 22:32:00,
2013-02-02 17:42:00,29.0,25.0,-100.00,WSW,247,9.0,15.0,83,0.00,,,0.09,56.000000,,2013-02-02 22:42:00,
2013-02-02 18:11:00,29.0,24.0,-100.00,WSW,254,8.0,16.0,82,0.00,,,0.09,20.000000,,2013-02-02 23:11:00,
2013-02-02 18:22:00,29.0,24.0,-100.00,WSW,254,8.0,16.0,82,0.00,,,0.09,20.000000,,2013-02-02 23:22:00,
2013-02-02 18:32:00,29.0,24.0,-100.00,WSW,254,8.0,16.0,82,0.00,,,0.09,20.000000,,2013-02-02 23:32:00,
2013-02-02 18:42:00,29.0,24.0,-100.00,WSW,254,8.0,16.0,82,0.00,,,0.09,20.000000,,2013-02-02 23:42:00,
2013-02-02 19:11:00,29.0,24.0,-100.00,West,276,7.0,15.0,81,0.00,,,0.09,2.000000,,2013-02-03 00:11:00,
2013-02-02 19:22:00,29.0,24.0,-100.00,West,276,7.0,15.0,81,0.00,,,0.09,2.000000,,2013-02-03 00:22:00,
2013-02-02 19:32:00,29.0,24.0,-100.00,West,276,7.0,15.0,81,0.00,,,0.09,2.000000,,2013-02-03 00:32:00,
2013-02-02 19:42:00,29.0,24.0,-100.00,West,276,7.0,15.0,81,0.00,,,0.09,2.000000,,2013-02-03 00:42:00,
2013-02-02 20:11:00,29.0,23.0,-100.00,West,274,6.0,15.0,77,0.00,,,0.09,0.000000,,2013-02-03 01:11:00,
2013-02-02 20:21:00,29.0,23.0,-100.00,West,274,6.0,15.0,77,0.00,,,0.09,0.000000,,2013-02-03 01:21:00,
2013-02-02 20:32:00,29.0,23.0,-100.00,West,274,6.0,15.0,77,0.00,,,0.09,0.000000,,2013-02-03 01:32:00,
2013-02-02 20:42:00,29.0,23.0,-100.00,West,274,6.0,15.0,77,0.00,,,0.09,0.000000,,2013-02-03 01:42:00,
2013-02-02 21:11:00,29.0,22.0,-100.00,West,264,5.0,14.0,75,0.00,,,0.09,0.000000,,2013-02-03 02:11:00,
2013-02-02 21:21:00,29.0,22.0,-100.00,West,264,5.0,14.0,75,0.00,,,0.09,0.000000,,2013-02-03 02:21:00,
2013-02-02 21:32:00,29.0,22.0,-100.00,West,264,5.0,14.0,75,0.00,,,0.09,0.000000,,2013-02-03 02:32:00,
2013-02-02 21:42:00,29.0,22.0,-100.00,West,264,5.0,14.0,75,0.00,,,0.09,0.000000,,2013-02-03 02:42:00,
2013-02-02 22:11:00,28.0,21.0,-100.00,West,260,5.0,11.0,74,0.00,,,0.09,0.000000,,2013-02-03 03:11:00,
2013-02-02 22:22:00,28.0,21.0,-100.00,West,260,5.0,11.0,74,0.00,,,0.09,0.000000,,2013-02-03 03:22:00,
2013-02-02 22:32:00,28.0,21.0,-100.00,West,260,5.0,11.0,74,0.00,,,0.09,0.000000,,2013-02-03 03:32:00,
2013-02-02 22:42:00,28.0,21.0,-100.00,West,260,5.0,11.0,74,0.00,,,0.09,0.000000,,2013-02-03 03:42:00,
2013-02-02 23:11:00,28.0,20.0,-100.00,West,269,6.0,9.0,73,0.00,,,0.09,0.000000,,2013-02-03 04:11:00,
2013-02-02 23:22:00,28.0,20.0,-100.00,West,269,6.0,9.0,73,0.00,,,0.09,0.000000,,2013-02-03 04:22:00,
2013-02-02 23:32:00,28.0,20.0,-100.00,West,269,6.0,9.0,73,0.00,,,0.09,0.000000,,2013-02-03 04:32:00,
2013-02-02 23:42:00,28.0,20.0,-100.00,West,269,6.0,9.0,73,0.00,,,0.09,0.000000,,2013-02-03 04:42:00,